Time;durP1;ratioP1;P1;durP2;ratioP2;P2;SDS_P1;SDS_P2;PMS_P1;PMS_P2;Temp;Humidity;BMP_temperature;BMP_pressure;BME280_temperature;BME280_humidity;BME280_pressure;Samples;Min_cycle;Max_cycle;Signal;HPM_P1;HPM_P2
2022/06/27 05:18:53;;;;;;;43.35;31.20;;;;;;;22.30;68.34;101020.88;5081790;27;20387;-50
2022/06/27 05:21:21;;;;;;;41.25;27.77;;;;;;;22.26;68.46;101025.50;5092299;28;20036;-53
2022/06/27 05:23:46;;;;;;;47.28;30.70;;;;;;;22.25;68.05;101031.78;5091065;28;20028;-51
2022/06/27 05:26:12;;;;;;;38.45;29.05;;;;;;;22.29;68.17;101024.50;5088202;28;20082;-52
2022/06/27 05:28:37;;;;;;;43.30;31.20;;;;;;;22.27;68.06;101021.06;5070977;28;20035;-50
2022/06/27 05:31:09;;;;;;;40.83;29.95;;;;;;;22.27;68.15;101026.38;5078292;28;20443;-53
2022/06/27 05:33:37;;;;;;;41.67;30.58;;;;;;;22.27;68.44;101032.56;5103627;28;20079;-54
2022/06/27 05:36:04;;;;;;;41.08;29.38;;;;;;;22.27;68.05;101032.56;5071788;28;20028;-49
2022/06/27 05:38:29;;;;;;;40.00;30.00;;;;;;;22.29;68.35;101029.81;5054265;28;20043;-57
2022/06/27 05:40:55;;;;;;;38.95;29.65;;;;;;;22.29;68.11;101029.81;5071695;28;20029;-52
2022/06/27 05:43:21;;;;;;;40.50;30.50;;;;;;;22.29;68.27;101029.81;5071596;28;20082;-55
2022/06/27 05:45:48;;;;;;;37.70;29.70;;;;;;;22.30;67.96;101028.88;5072081;28;20412;-56
2022/06/27 05:48:13;;;;;;;38.75;28.90;;;;;;;22.29;68.13;101021.84;5072342;28;20017;-52
2022/06/27 05:50:41;;;;;;;35.65;29.08;;;;;;;22.31;68.19;101030.56;5073237;28;20487;-55
2022/06/27 05:53:06;;;;;;;38.78;30.08;;;;;;;22.31;68.04;101031.44;5070772;28;20037;-52
2022/06/27 05:55:32;;;;;;;33.92;27.75;;;;;;;22.31;67.71;101038.56;5104262;28;20468;-55
2022/06/27 05:57:58;;;;;;;40.00;30.50;;;;;;;22.31;67.81;101033.22;5070479;28;20020;-51
2022/06/27 06:00:24;;;;;;;36.47;29.08;;;;;;;22.30;68.09;101037.69;5053993;28;20367;-52
2022/06/27 06:02:51;;;;;;;39.30;28.40;;;;;;;22.30;67.87;101035.03;5087358;28;20086;-53
2022/06/27 06:05:19;;;;;;;36.17;27.90;;;;;;;22.31;68.01;101038.56;5071180;28;20025;-54
2022/06/27 06:07:45;;;;;;;35.63;28.25;;;;;;;22.30;67.83;101043.03;5077594;28;20029;-56
2022/06/27 06:10:11;;;;;;;35.42;26.52;;;;;;;22.30;68.14;101036.84;5040240;28;20029;-50
2022/06/27 06:12:37;;;;;;;37.58;27.80;;;;;;;22.32;67.92;101040.28;5053506;28;20358;-53
2022/06/27 06:15:14;;;;;;;36.67;28.27;;;;;;;22.32;67.94;101038.47;5074632;28;20039;-53
2022/06/27 06:17:40;;;;;;;34.30;27.50;;;;;;;22.35;67.88;101042.78;5107037;28;20052;-55
2022/06/27 06:20:06;;;;;;;36.63;28.55;;;;;;;22.34;67.67;101043.72;5071570;28;20029;-60
2022/06/27 06:22:32;;;;;;;34.95;27.40;;;;;;;22.34;67.98;101038.41;5069976;28;20021;-53
2022/06/27 06:25:00;;;;;;;34.08;26.45;;;;;;;22.34;67.78;101035.75;5072074;28;20044;-51
2022/06/27 06:27:25;;;;;;;36.80;27.75;;;;;;;22.33;67.86;101036.66;5080810;28;20017;-53
2022/06/27 06:29:54;;;;;;;33.10;26.10;;;;;;;22.34;67.59;101035.75;5060755;28;20025;-52
2022/06/27 06:32:20;;;;;;;35.58;26.40;;;;;;;22.34;68.00;101033.06;5057490;28;20362;-57
2022/06/27 06:34:48;;;;;;;36.83;27.50;;;;;;;22.33;67.84;101031.34;5060287;28;20033;-56
2022/06/27 06:37:13;;;;;;;35.55;27.50;;;;;;;22.34;67.90;101033.06;5060224;28;20020;-54
2022/06/27 06:39:39;;;;;;;32.00;25.80;;;;;;;22.34;67.85;101027.75;5057077;28;20029;-63
2022/06/27 06:42:05;;;;;;;33.22;26.42;;;;;;;22.35;67.87;101029.44;5057227;28;20079;-49
2022/06/27 06:44:32;;;;;;;33.38;27.23;;;;;;;22.34;67.84;101025.94;5056142;28;20411;-54
2022/06/27 06:47:01;;;;;;;32.75;25.70;;;;;;;22.37;67.29;101027.56;5045617;28;20048;-46
2022/06/27 06:49:26;;;;;;;33.28;26.08;;;;;;;22.40;67.87;101032.69;5056715;28;20350;-53
2022/06/27 06:51:54;;;;;;;33.83;25.70;;;;;;;22.38;67.50;101028.41;5058292;28;20025;-51
2022/06/27 06:54:20;;;;;;;34.28;27.08;;;;;;;22.38;67.34;101031.91;5056477;28;20029;-50
2022/06/27 06:56:46;;;;;;;31.55;24.83;;;;;;;22.39;67.82;101025.66;5061559;28;20081;-57
2022/06/27 06:59:11;;;;;;;33.72;25.38;;;;;;;22.38;67.42;101023.09;5062809;28;20036;-53
2022/06/27 07:01:37;;;;;;;30.40;24.67;;;;;;;22.37;67.55;101022.22;5057123;28;20374;-53
2022/06/27 07:04:05;;;;;;;30.63;25.85;;;;;;;22.37;67.70;101021.38;5055998;28;20029;-53
2022/06/27 07:06:33;;;;;;;34.15;25.38;;;;;;;22.36;67.82;101012.53;5056602;28;20027;-54
2022/06/27 07:08:59;;;;;;;28.95;24.08;;;;;;;22.36;67.47;101014.31;5055907;28;20470;-54
2022/06/27 07:11:31;;;;;;;33.08;25.50;;;;;;;22.39;67.69;101015.00;5055780;28;20032;-61
2022/06/27 07:14:02;;;;;;;31.75;26.27;;;;;;;22.49;67.67;101016.19;5040531;28;20021;-56
2022/06/27 07:16:27;;;;;;;34.45;24.77;;;;;;;22.54;68.42;101013.25;5056585;28;20108;-56
2022/06/27 07:18:55;;;;;;;28.40;23.25;;;;;;;22.55;68.08;101018.50;5056408;28;20039;-56
2022/06/27 07:21:26;;;;;;;26.63;22.42;;;;;;;22.54;68.09;101014.09;5055530;28;20087;-56
2022/06/27 07:23:52;;;;;;;26.17;22.33;;;;;;;22.65;67.86;101009.94;5055722;28;20049;-54
2022/06/27 07:26:21;;;;;;;25.25;21.10;;;;;;;22.67;68.10;101002.72;5056605;28;20017;-48
2022/06/27 07:28:49;;;;;;;;;;;;;;;22.64;67.87;101010.88;5056859;28;20029;-46
2022/06/27 07:31:18;;;;;;;30.70;20.20;;;;;;;22.66;67.50;101006.31;5089362;28;20011;-58
2022/06/27 07:33:45;;;;;;;22.70;18.15;;;;;;;22.63;68.34;101001.19;5058906;28;20143;-57
2022/06/27 07:36:15;;;;;;;25.50;19.83;;;;;;;22.55;68.52;100996.31;5055344;28;20031;-56
2022/06/27 07:38:47;;;;;;;22.45;19.30;;;;;;;22.54;68.62;101003.44;5056830;28;20052;-54
2022/06/27 07:41:16;;;;;;;40.05;18.35;;;;;;;22.53;68.62;100995.56;5059250;28;20186;-58
2022/06/27 07:43:44;;;;;;;23.07;17.03;;;;;;;22.64;68.36;100987.78;5057448;28;20035;-56
2022/06/27 07:46:12;;;;;;;21.85;17.15;;;;;;;22.53;68.93;100987.56;5055304;28;20453;-57
2022/06/27 07:48:39;;;;;;;21.02;18.33;;;;;;;22.52;68.83;100989.38;5054987;28;20112;-48
2022/06/27 07:51:05;;;;;;;17.88;15.80;;;;;;;22.51;68.92;100982.31;5057375;28;20082;-55
2022/06/27 07:53:35;;;;;;;21.38;16.25;;;;;;;22.55;68.74;100983.00;5056383;28;20033;-55
2022/06/27 07:56:01;;;;;;;16.95;15.15;;;;;;;22.51;68.45;100979.66;5038971;28;20401;-55
2022/06/27 07:58:38;;;;;;;16.70;14.85;;;;;;;22.47;68.67;100980.78;5055737;28;20013;-53
2022/06/27 08:01:09;;;;;;;17.20;15.20;;;;;;;22.51;68.85;100981.47;5025129;28;20029;-54
2022/06/27 08:03:39;;;;;;;17.10;13.70;;;;;;;22.61;68.20;100977.28;5057233;28;20013;-56
2022/06/27 08:06:13;;;;;;;15.38;13.75;;;;;;;22.61;67.71;100979.09;5054976;28;20025;-49
2022/06/27 08:08:39;;;;;;;15.63;13.93;;;;;;;22.56;68.06;100982.03;5054674;28;20473;-52
2022/06/27 08:11:11;;;;;;;15.02;13.52;;;;;;;22.53;68.05;100980.41;5038331;28;20108;-51
2022/06/27 08:13:40;;;;;;;14.07;12.52;;;;;;;22.57;67.54;100982.88;5055563;28;20031;-48
2022/06/27 08:16:05;;;;;;;14.43;12.55;;;;;;;22.63;67.14;100985.19;5055453;28;20028;-50
2022/06/27 08:18:38;;;;;;;13.38;12.00;;;;;;;22.61;66.76;100981.75;5055913;28;20029;-46
2022/06/27 08:21:04;;;;;;;15.05;12.20;;;;;;;22.57;66.67;100982.88;5056503;28;20162;-44
2022/06/27 08:23:32;;;;;;;13.85;12.35;;;;;;;22.71;66.26;100983.78;5054673;28;20021;-48
2022/06/27 08:25:58;;;;;;;12.45;11.05;;;;;;;22.78;66.77;100976.28;5054507;28;20327;-50
2022/06/27 08:28:28;;;;;;;15.07;11.50;;;;;;;22.80;67.00;100971.69;5054434;28;20438;-46
2022/06/27 08:30:54;;;;;;;11.85;10.18;;;;;;;22.74;66.75;100969.41;5054264;28;20029;-46
2022/06/27 08:33:24;;;;;;;11.93;10.60;;;;;;;22.77;66.35;100971.88;5055235;28;20104;-45
2022/06/27 08:35:55;;;;;;;11.85;10.43;;;;;;;22.73;65.95;100968.56;5054035;28;20031;-42
2022/06/27 08:38:22;;;;;;;12.75;8.75;;;;;;;22.86;64.71;100966.00;5055000;28;20021;-45
2022/06/27 08:40:48;;;;;;;11.95;9.07;;;;;;;22.90;64.61;100967.53;5054934;28;20049;-45
2022/06/27 08:43:15;;;;;;;11.13;8.85;;;;;;;22.89;65.17;100960.47;5070659;28;20097;-44
2022/06/27 08:45:43;;;;;;;10.35;9.35;;;;;;;22.88;65.04;100968.59;5055074;28;20028;-47
2022/06/27 08:48:11;;;;;;;10.40;8.70;;;;;;;22.88;65.19;100961.44;5037611;28;20021;-52
2022/06/27 08:50:37;;;;;;;9.90;8.90;;;;;;;22.89;65.29;100964.94;5053758;28;20067;-51
2022/06/27 08:53:05;;;;;;;10.07;9.02;;;;;;;22.90;64.88;100983.53;5037017;28;20021;-48
2022/06/27 08:55:31;;;;;;;10.52;8.05;;;;;;;22.91;65.28;100969.25;5053647;28;20025;-50
2022/06/27 08:58:03;;;;;;;8.23;7.43;;;;;;;22.92;64.33;100976.31;5054629;28;20461;-51
2022/06/27 09:00:32;;;;;;;8.98;7.30;;;;;;;22.96;64.45;100972.47;5054528;28;20064;-48
2022/06/27 09:03:02;;;;;;;8.15;7.32;;;;;;;22.95;64.12;100973.44;5036992;28;20028;-48
2022/06/27 09:05:28;;;;;;;7.47;6.78;;;;;;;22.97;64.19;100962.69;5053578;28;20021;-45
2022/06/27 09:08:04;;;;;;;11.82;6.75;;;;;;;22.96;63.72;100961.81;5054480;28;20017;-48
2022/06/27 09:10:32;;;;;;;7.82;7.00;;;;;;;22.97;63.32;100968.88;5037166;28;20047;-43
2022/06/27 09:13:06;;;;;;;7.85;6.72;;;;;;;23.03;63.60;100964.13;5054433;28;20032;-45
2022/06/27 09:15:37;;;;;;;7.05;6.43;;;;;;;23.05;63.86;100964.91;5054471;28;20063;-43
2022/06/27 09:18:05;;;;;;;7.43;6.22;;;;;;;23.05;63.42;100965.75;5053294;28;20459;-45
2022/06/27 09:21:09;;;;;;;7.43;6.57;;;;;;;22.95;63.19;100969.91;5036815;28;20378;-44
2022/06/27 09:23:41;;;;;;;11.50;7.80;;;;;;;23.01;63.15;100960.72;5047328;28;20063;-40
2022/06/27 09:26:10;;;;;;;7.75;6.68;;;;;;;23.09;62.77;100958.44;5054376;28;20078;-40
2022/06/27 09:28:53;;;;;;;6.80;6.10;;;;;;;23.12;62.52;100955.56;5054341;28;20123;-40
2022/06/27 09:31:30;;;;;;;6.70;6.10;;;;;;;23.15;62.45;100950.88;5053635;28;20025;-40
2022/06/27 09:33:59;;;;;;;8.23;6.78;;;;;;;23.12;62.37;100950.22;5053238;28;20020;-41
2022/06/27 09:36:30;;;;;;;7.43;6.10;;;;;;;23.17;62.06;100942.78;5054411;28;20111;-42
2022/06/27 09:39:01;;;;;;;83.40;58.97;;;;;;;23.13;62.24;100946.59;5037552;28;20017;-44
2022/06/27 09:41:29;;;;;;;116.78;82.82;;;;;;;23.12;62.31;100942.22;5053392;28;20470;-44
2022/06/27 09:44:01;;;;;;;102.60;73.28;;;;;;;23.07;62.87;100942.53;5054118;28;20037;-46
2022/06/27 09:46:28;;;;;;;176.63;117.63;;;;;;;23.09;62.30;100939.75;5053246;28;20156;-42
2022/06/27 09:48:56;;;;;;;145.40;92.95;;;;;;;23.06;62.36;100935.47;5053358;28;20565;-52
2022/06/27 09:51:21;;;;;;;122.03;84.07;;;;;;;23.13;61.73;100941.25;5053177;28;20039;-47
2022/06/27 09:53:50;;;;;;;109.97;76.22;;;;;;;23.18;61.57;100944.53;5053208;28;20021;-45
2022/06/27 09:56:17;;;;;;;88.63;63.53;;;;;;;23.21;60.86;100947.00;5036885;28;20029;-44
2022/06/27 09:58:45;;;;;;;73.60;50.20;;;;;;;23.25;60.80;100939.63;5036814;28;20017;-46
2022/06/27 10:01:15;;;;;;;62.25;41.45;;;;;;;23.27;60.74;100938.63;5053246;28;20154;-49
2022/06/27 10:03:41;;;;;;;43.67;31.85;;;;;;;23.25;60.60;100935.19;5037563;28;20032;-52
2022/06/27 10:06:07;;;;;;;39.45;29.77;;;;;;;23.21;61.27;100928.31;5057793;28;20470;-50
2022/06/27 10:08:34;;;;;;;38.17;28.35;;;;;;;23.21;61.05;100928.31;5056998;28;20017;-46
2022/06/27 10:11:08;;;;;;;32.47;23.38;;;;;;;23.17;60.99;100924.13;5040528;28;20029;-44
2022/06/27 10:13:38;;;;;;;23.27;16.80;;;;;;;23.25;60.54;100919.19;5040123;28;20031;-45
2022/06/27 10:16:12;;;;;;;17.10;11.85;;;;;;;23.32;59.56;100932.94;5056643;28;20102;-46
2022/06/27 10:18:56;;;;;;;16.58;13.27;;;;;;;23.27;59.82;100922.59;5056398;28;20151;-50
2022/06/27 10:21:32;;;;;;;15.07;12.32;;;;;;;23.27;59.73;100922.59;5057466;28;20033;-47
2022/06/27 10:24:19;;;;;;;13.35;8.95;;;;;;;23.32;59.16;100931.16;5056421;28;20029;-45
2022/06/27 10:26:51;;;;;;;9.95;8.25;;;;;;;23.34;59.02;100929.25;5056853;28;20485;-46
2022/06/27 10:29:34;;;;;;;9.15;7.85;;;;;;;23.35;59.23;100935.44;5040861;28;20044;-44
2022/06/27 10:32:01;;;;;;;9.98;6.53;;;;;;;23.43;59.29;100937.63;5056451;28;20170;-45
2022/06/27 10:34:43;;;;;;;7.63;6.82;;;;;;;23.42;58.90;100925.25;5056181;28;20021;-49
2022/06/27 10:37:26;;;;;;;6.93;6.22;;;;;;;23.45;59.00;100930.38;5056970;28;20446;-48
2022/06/27 10:40:23;;;;;;;7.22;6.40;;;;;;;23.45;58.53;100912.53;5056306;28;20032;-46
2022/06/27 10:42:54;;;;;;;6.95;5.72;;;;;;;23.42;59.17;100898.56;5057018;28;20029;-53
2022/06/27 10:45:20;;;;;;;7.32;6.00;;;;;;;23.41;59.30;100907.50;5040193;28;20032;-53
2022/06/27 10:47:57;;;;;;;6.47;5.82;;;;;;;23.48;58.47;100908.81;5057042;28;20025;-44
2022/06/27 10:50:26;;;;;;;5.65;5.10;;;;;;;23.48;58.99;100919.50;5057012;28;20462;-47
2022/06/27 10:53:19;;;;;;;6.40;5.63;;;;;;;23.52;58.48;100910.34;5056945;28;20029;-48
2022/06/27 10:55:45;;;;;;;5.50;5.00;;;;;;;23.54;57.88;100913.78;5056747;28;20056;-43
2022/06/27 10:58:27;;;;;;;7.38;4.93;;;;;;;23.66;57.20;100915.63;5055779;28;20428;-45
2022/06/27 11:00:52;;;;;;;7.75;4.57;;;;;;;23.62;57.16;100906.09;5055985;28;20112;-48
2022/06/27 11:03:20;;;;;;;6.13;5.38;;;;;;;23.60;57.05;100900.88;5039155;28;20099;-45
2022/06/27 11:05:53;;;;;;;5.38;4.45;;;;;;;23.54;57.70;100908.44;5039046;28;20058;-49
2022/06/27 11:08:20;;;;;;;7.47;5.55;;;;;;;23.53;57.24;100901.38;5055800;28;20032;-47
2022/06/27 11:10:48;;;;;;;7.75;4.90;;;;;;;23.72;56.13;100901.03;5055688;28;20043;-47
2022/06/27 11:13:37;;;;;;;9.35;5.68;;;;;;;23.60;56.74;100897.38;5056603;28;20020;-44
2022/06/27 11:16:03;;;;;;;7.15;5.30;;;;;;;23.62;56.51;100890.09;5055295;28;20028;-44
2022/06/27 11:18:50;;;;;;;7.97;5.90;;;;;;;23.59;57.11;100882.28;5055364;28;20044;-44
2022/06/27 11:21:18;;;;;;;8.43;5.80;;;;;;;23.61;57.50;100880.38;5056278;28;20520;-47
2022/06/27 11:23:52;;;;;;;10.68;6.05;;;;;;;23.72;58.71;100872.53;5039183;28;20067;-51
2022/06/27 11:26:25;;;;;;;6.93;5.28;;;;;;;23.80;57.57;100870.22;5056114;28;20021;-47
2022/06/27 11:34:18;;;;;;;6.32;5.38;;;;;;;23.79;59.26;100860.50;5055536;28;20093;-53
2022/06/27 11:36:48;;;;;;;6.05;5.18;;;;;;;23.78;57.69;100869.47;5038376;28;20021;-48
2022/06/27 11:39:19;;;;;;;6.03;5.45;;;;;;;23.87;58.41;100854.66;5055290;28;20036;-45
2022/06/27 11:41:44;;;;;;;8.93;4.90;;;;;;;23.82;57.44;100858.59;5055361;28;20033;-53
2022/06/27 11:44:13;;;;;;;5.57;5.07;;;;;;;23.75;58.05;100858.16;5055860;28;20027;-45
2022/06/27 11:46:45;;;;;;;5.93;5.10;;;;;;;23.79;57.79;100860.50;5055891;28;20025;-52
2022/06/27 11:49:14;;;;;;;6.22;5.63;;;;;;;23.59;59.75;100858.28;5055300;28;20029;-49
2022/06/27 11:51:42;;;;;;;5.55;5.00;;;;;;;23.38;58.64;100863.19;5055719;28;20461;-47
2022/06/27 11:54:12;;;;;;;5.97;5.40;;;;;;;23.30;58.62;100862.84;5038273;28;20033;-46
2022/06/27 11:56:41;;;;;;;;;;;;;;;23.26;59.67;100866.66;5055252;28;20458;-49
2022/06/27 11:59:07;;;;;;;8.32;5.43;;;;;;;23.24;59.20;100874.75;5055747;28;19988;-45
2022/06/27 12:01:37;;;;;;;5.97;5.38;;;;;;;23.22;59.52;100866.00;5021820;28;20178;-50
2022/06/27 12:04:15;;;;;;;6.72;5.63;;;;;;;23.22;60.39;100865.16;5038283;28;20031;-44
2022/06/27 12:06:49;;;;;;;7.35;5.55;;;;;;;23.19;59.76;100868.88;5038386;28;20028;-46
2022/06/27 12:09:17;;;;;;;6.20;5.22;;;;;;;23.13;60.07;100867.47;5054887;28;20029;-50
2022/06/27 12:11:55;;;;;;;5.90;5.18;;;;;;;23.12;60.65;100862.22;5054554;28;20025;-43
2022/06/27 12:14:22;;;;;;;5.75;5.25;;;;;;;23.10;60.32;100856.13;5054546;28;20025;-43
2022/06/27 12:16:52;;;;;;;5.68;5.18;;;;;;;23.11;60.55;100855.19;5054151;28;20477;-43
2022/06/27 12:19:20;;;;;;;6.20;5.70;;;;;;;23.08;61.24;100858.03;5055254;28;20033;-48
2022/06/27 12:21:45;;;;;;;7.53;5.40;;;;;;;23.08;61.04;100850.88;5055257;28;20029;-46
2022/06/27 12:24:11;;;;;;;8.93;5.72;;;;;;;23.10;60.96;100850.78;5054360;28;20082;-48
2022/06/27 12:26:41;;;;;;;5.65;5.00;;;;;;;23.16;61.00;100837.91;5054650;28;20110;-43
2022/06/27 12:29:09;;;;;;;6.43;5.10;;;;;;;23.34;60.44;100838.56;5038226;28;20028;-44
2022/06/27 12:31:35;;;;;;;6.80;5.75;;;;;;;23.21;61.41;100844.78;5055292;28;20070;-45
2022/06/27 12:34:01;;;;;;;5.90;5.30;;;;;;;23.16;61.39;100839.75;5054340;28;20378;-47
2022/06/27 12:36:28;;;;;;;6.18;4.85;;;;;;;23.12;61.41;100833.72;5037473;28;20469;-43
2022/06/27 12:38:53;;;;;;;5.75;5.20;;;;;;;23.10;61.28;100832.13;5053982;28;20017;-44
2022/06/27 12:41:19;;;;;;;7.00;4.95;;;;;;;23.09;61.44;100831.28;5054875;28;20336;-44
2022/06/27 12:43:45;;;;;;;6.80;5.40;;;;;;;23.09;61.85;100843.75;5054010;28;20043;-48
2022/06/27 12:46:13;;;;;;;5.68;5.00;;;;;;;23.09;61.51;100833.09;5053708;28;20036;-44
2022/06/27 12:48:39;;;;;;;5.85;5.35;;;;;;;23.05;61.84;100832.41;5053957;28;20049;-46
2022/06/27 12:51:07;;;;;;;5.43;4.88;;;;;;;23.02;61.99;100827.28;5053844;28;20075;-44
2022/06/27 12:53:33;;;;;;;7.60;5.18;;;;;;;23.04;62.35;100832.50;5053757;28;20103;-44
2022/06/27 12:56:02;;;;;;;6.93;5.47;;;;;;;23.01;61.98;100824.72;5054613;28;20366;-44
2022/06/27 12:58:28;;;;;;;8.80;5.25;;;;;;;23.04;62.19;100836.06;5037446;28;20024;-46
2022/06/27 13:00:58;;;;;;;6.18;5.47;;;;;;;23.11;62.11;100831.19;5053700;28;20580;-45
2022/06/27 13:03:23;;;;;;;5.40;4.90;;;;;;;23.06;61.97;100836.81;5053628;28;20024;-45
2022/06/27 13:05:51;;;;;;;6.45;5.75;;;;;;;23.05;62.31;100842.22;5053515;28;20024;-48
2022/06/27 13:08:16;;;;;;;6.05;5.45;;;;;;;23.05;62.58;100837.75;5054425;28;20025;-46
2022/06/27 13:10:44;;;;;;;5.90;5.40;;;;;;;23.03;62.22;100838.81;5054571;28;20473;-51
2022/06/27 13:13:11;;;;;;;6.50;5.90;;;;;;;23.03;62.15;100833.47;5037122;28;20126;-46
2022/06/27 13:15:40;;;;;;;5.78;5.20;;;;;;;23.06;62.38;100822.59;5053495;28;20435;-49
2022/06/27 13:18:06;;;;;;;7.50;5.07;;;;;;;23.06;62.84;100833.25;5053489;28;20112;-45
2022/06/27 13:20:34;;;;;;;5.40;4.88;;;;;;;23.01;62.97;100830.03;5054437;28;20119;-48
2022/06/27 13:23:02;;;;;;;5.82;5.22;;;;;;;23.01;62.44;100830.03;5054239;28;20032;-49
2022/06/27 13:25:32;;;;;;;6.55;5.18;;;;;;;22.99;62.85;100834.63;5054300;28;20025;-55
2022/06/27 13:27:58;;;;;;;6.03;5.38;;;;;;;22.99;63.12;100831.94;5054499;28;20025;-52
2022/06/27 13:30:26;;;;;;;8.57;5.80;;;;;;;22.99;63.01;100829.28;5054556;28;20461;-46
2022/06/27 13:32:54;;;;;;;5.57;5.00;;;;;;;23.03;62.72;100823.66;5054781;28;20104;-44
2022/06/27 13:35:25;;;;;;;6.15;5.43;;;;;;;23.05;63.05;100826.22;5054416;28;20009;-46
2022/06/27 13:37:54;;;;;;;5.95;5.38;;;;;;;23.04;62.68;100832.50;5054940;28;20020;-45
2022/06/27 13:40:19;;;;;;;6.45;5.55;;;;;;;23.05;62.98;100828.91;5057583;28;20399;-47
2022/06/27 13:42:47;;;;;;;6.10;5.43;;;;;;;23.03;63.06;100829.00;5058220;28;20063;-44
2022/06/27 13:45:13;;;;;;;6.05;5.22;;;;;;;23.05;62.93;100826.22;5058490;28;20120;-45
2022/06/27 13:47:41;;;;;;;6.30;5.70;;;;;;;23.06;63.21;100826.16;5058262;28;20438;-45
2022/06/27 13:50:08;;;;;;;5.53;4.80;;;;;;;23.11;62.55;100820.53;5058348;28;20029;-43
2022/06/27 13:52:36;;;;;;;5.10;4.68;;;;;;;23.07;62.81;100827.00;5058226;28;20097;-45
2022/06/27 13:55:04;;;;;;;6.60;6.00;;;;;;;23.03;62.80;100818.31;5057250;28;20107;-46
2022/06/27 13:57:34;;;;;;;6.05;5.45;;;;;;;23.07;63.20;100829.66;5056872;28;20021;-43
2022/06/27 14:00:02;;;;;;;6.03;5.43;;;;;;;23.05;63.29;100831.56;5057096;28;20043;-44
2022/06/27 14:02:28;;;;;;;5.35;4.85;;;;;;;23.10;63.02;100824.13;5057447;28;20117;-51
2022/06/27 14:04:53;;;;;;;6.03;5.10;;;;;;;23.12;62.94;100823.06;5057914;28;20021;-46
2022/06/27 14:07:39;;;;;;;5.32;4.82;;;;;;;23.12;63.14;100822.22;5056895;28;20115;-45
2022/06/27 14:10:05;;;;;;;5.97;5.18;;;;;;;23.16;63.04;100824.59;5057767;28;20049;-47
2022/06/27 14:12:32;;;;;;;5.30;4.80;;;;;;;23.17;62.38;100820.09;5058262;28;20021;-41
2022/06/27 14:15:00;;;;;;;5.53;4.95;;;;;;;23.17;62.94;100820.09;5057828;28;20017;-47
2022/06/27 14:17:28;;;;;;;5.80;5.30;;;;;;;23.21;62.91;100810.94;5056667;28;20074;-42
2022/06/27 14:19:53;;;;;;;5.53;5.03;;;;;;;23.26;62.74;100808.84;5057864;28;20029;-43
2022/06/27 14:22:21;;;;;;;5.57;5.07;;;;;;;23.28;62.77;100808.75;5057673;28;20442;-44
2022/06/27 14:24:47;;;;;;;5.68;5.07;;;;;;;23.30;63.19;100817.50;5056909;28;20031;-48
2022/06/27 14:27:12;;;;;;;20.65;15.38;;;;;;;23.43;62.23;100809.53;5057705;28;20017;-43
2022/06/27 14:29:42;;;;;;;24.40;18.58;;;;;;;23.62;61.89;100812.69;5057809;28;20033;-46
2022/06/27 14:32:08;;;;;;;49.28;33.33;;;;;;;23.49;61.56;100804.66;5057494;28;20025;-48
2022/06/27 14:34:40;;;;;;;64.25;45.60;;;;;;;23.37;61.49;100800.13;5057452;28;20033;-45
2022/06/27 14:37:09;;;;;;;81.82;56.83;;;;;;;23.28;60.95;100798.94;5057217;28;20347;-48
2022/06/27 14:39:35;;;;;;;102.28;71.50;;;;;;;23.25;60.97;100796.47;5061707;28;20086;-49
2022/06/27 14:42:03;;;;;;;107.88;75.78;;;;;;;23.27;60.87;100799.00;5060539;28;20389;-49
2022/06/27 14:44:32;;;;;;;97.95;68.55;;;;;;;23.35;61.15;100797.56;5056253;28;20484;-49
2022/06/27 14:47:00;;;;;;;95.10;67.57;;;;;;;23.42;60.13;100792.69;5056107;28;20320;-48
2022/06/27 14:49:27;;;;;;;103.20;69.18;;;;;;;23.41;60.68;100790.09;5056468;28;20066;-49
2022/06/27 14:51:57;;;;;;;94.68;66.95;;;;;;;23.38;60.60;100796.50;5056983;28;20096;-49
2022/06/27 14:54:27;;;;;;;96.43;66.30;;;;;;;23.37;60.67;100795.66;5056092;28;20032;-48
2022/06/27 14:56:53;;;;;;;98.95;66.00;;;;;;;23.33;61.03;100798.63;5055983;28;20040;-44
2022/06/27 14:59:18;;;;;;;97.75;66.28;;;;;;;23.31;61.08;100788.03;5055861;28;20040;-47
2022/06/27 15:01:46;;;;;;;96.32;65.18;;;;;;;23.33;61.25;100788.78;5039393;28;20025;-49
2022/06/27 15:04:14;;;;;;;98.68;63.67;;;;;;;23.33;61.00;100799.47;5039779;28;20033;-50
2022/06/27 15:06:41;;;;;;;94.22;63.47;;;;;;;23.30;61.54;100799.69;5055909;28;20098;-48
2022/06/27 15:09:10;;;;;;;92.97;63.20;;;;;;;23.28;61.99;100796.25;5056045;28;20025;-47
2022/06/27 15:11:38;;;;;;;93.70;63.17;;;;;;;23.29;62.02;100795.28;5056928;28;20332;-46
2022/06/27 15:14:05;;;;;;;96.50;63.65;;;;;;;23.29;62.08;100797.94;5057062;28;20383;-44
2022/06/27 15:16:37;;;;;;;93.47;62.05;;;;;;;23.29;62.78;100791.78;5055949;28;20420;-46
2022/06/27 15:19:07;;;;;;;94.95;62.03;;;;;;;23.28;62.51;100793.59;5056106;28;20045;-46
2022/06/27 15:21:33;;;;;;;93.32;62.78;;;;;;;23.28;62.75;100803.41;5056774;28;20061;-46
2022/06/27 15:24:03;;;;;;;88.43;60.75;;;;;;;23.25;62.86;100791.13;5055721;28;20031;-49
2022/06/27 15:26:31;;;;;;;88.70;60.30;;;;;;;23.26;63.85;100795.50;5039157;28;20071;-51
2022/06/27 15:28:59;;;;;;;84.93;59.70;;;;;;;23.25;63.57;100785.81;5056370;28;20078;-47
2022/06/27 15:31:24;;;;;;;86.88;60.25;;;;;;;23.20;63.76;100793.22;5056457;28;20025;-50
2022/06/27 15:33:54;;;;;;;86.97;60.03;;;;;;;23.17;63.33;100796.94;5056418;28;20024;-50
2022/06/27 15:36:19;;;;;;;;;;;;;;;23.16;63.74;100802.41;5055820;28;20067;-49
2022/06/27 15:38:47;;;;;;;86.72;58.50;;;;;;;23.17;63.14;100804.09;5056034;28;19956;-50
2022/06/27 15:41:12;;;;;;;89.32;58.65;;;;;;;23.13;63.72;100807.91;5088644;28;20064;-46
2022/06/27 15:43:38;;;;;;;85.03;58.17;;;;;;;23.13;64.24;100803.47;5055354;28;20339;-49
2022/06/27 15:46:03;;;;;;;83.13;56.50;;;;;;;23.13;64.16;100797.25;5056235;28;20025;-43
2022/06/27 15:48:32;;;;;;;79.32;55.50;;;;;;;23.12;64.89;100796.41;5055955;28;20029;-47
2022/06/27 15:50:58;;;;;;;86.50;54.80;;;;;;;23.14;64.17;100791.81;5054768;28;20086;-48
2022/06/27 15:53:23;;;;;;;89.75;59.15;;;;;;;23.16;63.75;100792.59;5055770;28;20025;-43
2022/06/27 15:55:49;;;;;;;84.50;55.30;;;;;;;23.13;63.45;100792.78;5056921;28;20040;-50
2022/06/27 15:58:19;;;;;;;83.00;54.20;;;;;;;23.15;64.69;100790.00;5057243;28;20033;-43
2022/06/27 16:00:47;;;;;;;87.55;55.30;;;;;;;23.19;65.00;100804.84;5054973;28;20029;-47
2022/06/27 16:03:15;;;;;;;89.57;57.05;;;;;;;23.35;65.46;100808.22;5055190;28;20039;-47
2022/06/27 16:05:40;;;;;;;81.18;48.45;;;;;;;23.27;65.19;100796.34;5055286;28;20470;-47
2022/06/27 16:08:06;;;;;;;71.25;45.88;;;;;;;23.13;65.12;100805.25;5055799;28;20021;-49
2022/06/27 16:10:31;;;;;;;75.35;47.22;;;;;;;23.05;65.49;100818.22;5054968;28;20028;-50
2022/06/27 16:12:59;;;;;;;70.05;48.85;;;;;;;23.04;65.50;100827.16;5058984;28;20450;-48
2022/06/27 16:15:24;;;;;;;73.43;48.53;;;;;;;23.02;65.22;100823.78;5057963;28;20033;-51
2022/06/27 16:17:49;;;;;;;76.22;49.10;;;;;;;;;;5056514;28;20473;-50
2022/06/27 16:20:15;;;;;;;73.93;50.13;;;;;;;22.99;65.55;100823.94;5055393;28;20033;-49
2022/06/27 16:22:43;;;;;;;76.07;50.53;;;;;;;22.95;66.00;100826.78;5055383;28;20025;-51
2022/06/27 16:25:09;;;;;;;91.88;49.58;;;;;;;22.96;66.32;100833.81;5055301;28;20052;-52
2022/06/27 16:27:34;;;;;;;72.00;49.83;;;;;;;22.95;66.17;100833.94;5055363;28;20067;-49
2022/06/27 16:30:00;;;;;;;71.03;49.45;;;;;;;22.95;66.26;100841.94;5055038;28;20025;-50
2022/06/27 16:32:25;;;;;;;73.90;49.15;;;;;;;22.94;66.36;100835.75;5054237;28;20021;-48
2022/06/27 16:34:51;;;;;;;72.22;48.25;;;;;;;22.93;66.55;100838.50;5055054;28;20025;-50
2022/06/27 16:37:16;;;;;;;72.47;50.28;;;;;;;22.93;66.55;100841.19;5053900;28;20048;-50
2022/06/27 16:39:43;;;;;;;75.10;48.88;;;;;;;22.91;66.44;100843.94;5057094;28;20033;-48
2022/06/27 16:44:52;;;;;;;68.97;47.60;;;;;;;22.90;66.54;100855.56;5054246;28;20462;-49
2022/06/27 16:47:17;;;;;;;69.35;48.85;;;;;;;22.90;66.51;100866.22;5055318;28;20024;-51
2022/06/27 16:49:43;;;;;;;70.35;47.95;;;;;;;22.88;66.33;100865.47;5039415;28;20037;-49